^^
Saratoga-Weather Station Historical Data
Daily Summary for October 2, 2020 Units:  Both    English   Metric
Daily Weekly Monthly Yearly Custom
  High: Low: Average:
Temperature: 56.8 °F /  13.8 °C 45.3 °F /  7.4 °C 51.8 °F /  11 °C
Dew Point: 55.8 °F /  13.2 °C 44.2 °F /  6.8 °C 50.7 °F /  10.4 °C
Humidity: 98% 95% 97%
Wind Speed: 6.9mph /  11.1km/h - 0.4mph /  0.6km/h
Wind Gust: 10mph /  16.1km/h - -
Wind- - SSW
Pressure: 29.5 in /  1000.3 hPa 29.1 in /  985.4 hPa -
Precipitation: 0.39 in /  9.9 mm    
Historical Graphs
 
 
Tabular Data for October 2, 2020
Time Temperature Dew Point Pressure Wind Wind Speed Wind Gust Humidity Rainfall Rate (Hourly) solar
00:02 47.8 °F /  8.8 °C 46.8 °F /  8.2 °C 29.5in /  1000.3hPa Calm     96% 0in /  0.0mm 0 W/m2
00:07 47.8 °F /  8.8 °C 46.8 °F /  8.2 °C 29.5in /  1000.3hPa Calm     96% 0in /  0.0mm 0 W/m2
00:12 47.8 °F /  8.8 °C 46.8 °F /  8.2 °C 29.5in /  1000.0hPa Calm     96% 0in /  0.0mm 0 W/m2
00:17 47.7 °F /  8.7 °C 46.2 °F /  7.9 °C 29.5in /  1000.0hPa Calm     95% 0in /  0.0mm 0 W/m2
00:22 47.7 °F /  8.7 °C 46.2 °F /  7.9 °C 29.5in /  1000.0hPa Calm     95% 0in /  0.0mm 0 W/m2
00:27 47.5 °F /  8.6 °C 46.4 °F /  8 °C 29.5in /  1000.0hPa Calm   1mph /  1.6km/h 96% 0in /  0.0mm 0 W/m2
00:32 47.5 °F /  8.6 °C 46.4 °F /  8 °C 29.5in /  1000.0hPa Calm     96% 0in /  0.0mm 0 W/m2
00:37 47.1 °F /  8.4 °C 46 °F /  7.8 °C 29.5in /  1000.0hPa Calm   2mph /  3.2km/h 96% 0in /  0.0mm 0 W/m2
00:42 47.1 °F /  8.4 °C 46 °F /  7.8 °C 29.5in /  999.7hPa Calm     96% 0in /  0.0mm 0 W/m2
00:47 46.9 °F /  8.3 °C 45.9 °F /  7.7 °C 29.5in /  999.7hPa Calm     96% 0in /  0.0mm 0 W/m2
00:52 46.8 °F /  8.2 °C 45.7 °F /  7.6 °C 29.5in /  999.7hPa Calm     96% 0in /  0.0mm 0 W/m2
00:57 46.8 °F /  8.2 °C 45.7 °F /  7.6 °C 29.5in /  999.7hPa Calm     96% 0in /  0.0mm 0 W/m2
01:02 46.8 °F /  8.2 °C 45.7 °F /  7.6 °C 29.5in /  999.7hPa Calm     96% 0in /  0.0mm 0 W/m2
01:07 46.6 °F /  8.1 °C 45.5 °F /  7.5 °C 29.5in /  999.3hPa Calm     96% 0in /  0.0mm 0 W/m2
01:12 46.4 °F /  8 °C 45.3 °F /  7.4 °C 29.5in /  999.3hPa Calm     96% 0in /  0.0mm 0 W/m2
01:17 46.2 °F /  7.9 °C 45.1 °F /  7.3 °C 29.5in /  999.3hPa Calm     96% 0in /  0.0mm 0 W/m2
01:22 46 °F /  7.8 °C 45 °F /  7.2 °C 29.5in /  999.3hPa Calm     96% 0in /  0.0mm 0 W/m2
01:27 46 °F /  7.8 °C 45 °F /  7.2 °C 29.5in /  999.3hPa Calm     96% 0in /  0.0mm 0 W/m2
01:32 46 °F /  7.8 °C 45 °F /  7.2 °C 29.5in /  999.3hPa Calm     96% 0in /  0.0mm 0 W/m2
01:37 46 °F /  7.8 °C 45 °F /  7.2 °C 29.5in /  999.3hPa Calm     96% 0in /  0.0mm 0 W/m2
01:42 46 °F /  7.8 °C 45 °F /  7.2 °C 29.5in /  999.0hPa Calm     96% 0in /  0.0mm 0 W/m2
01:47 46 °F /  7.8 °C 45 °F /  7.2 °C 29.5in /  999.0hPa Calm     96% 0in /  0.0mm 0 W/m2
01:52 46 °F /  7.8 °C 45 °F /  7.2 °C 29.5in /  998.6hPa Calm     96% 0in /  0.0mm 0 W/m2
01:57 45.9 °F /  7.7 °C 44.8 °F /  7.1 °C 29.5in /  998.6hPa Calm     96% 0in /  0.0mm 0 W/m2
02:02 45.9 °F /  7.7 °C 44.8 °F /  7.1 °C 29.5in /  998.6hPa Calm     96% 0in /  0.0mm 0 W/m2
02:07 45.9 °F /  7.7 °C 44.8 °F /  7.1 °C 29.5in /  998.6hPa Calm     96% 0in /  0.0mm 0 W/m2
02:12 45.7 °F /  7.6 °C 44.6 °F /  7 °C 29.5in /  998.6hPa Calm     96% 0in /  0.0mm 0 W/m2
02:17 45.7 °F /  7.6 °C 44.6 °F /  7 °C 29.5in /  998.3hPa Calm     96% 0in /  0.0mm 0 W/m2
02:22 45.7 °F /  7.6 °C 44.6 °F /  7 °C 29.5in /  998.3hPa Calm     96% 0in /  0.0mm 0 W/m2
02:27 45.5 °F /  7.5 °C 44.4 °F /  6.9 °C 29.5in /  998.3hPa Calm     96% 0in /  0.0mm 0 W/m2
02:33 45.7 °F /  7.6 °C 44.6 °F /  7 °C 29.5in /  998.3hPa Calm     96% 0in /  0.0mm 0 W/m2
02:38 45.7 °F /  7.6 °C 44.6 °F /  7 °C 29.5in /  998.0hPa Calm     96% 0in /  0.0mm 0 W/m2
02:43 45.7 °F /  7.6 °C 44.6 °F /  7 °C 29.5in /  998.0hPa Calm     96% 0in /  0.0mm 0 W/m2
02:48 45.5 °F /  7.5 °C 44.4 °F /  6.9 °C 29.5in /  998.0hPa Calm     96% 0in /  0.0mm 0 W/m2
02:53 45.5 °F /  7.5 °C 44.4 °F /  6.9 °C 29.5in /  998.0hPa Calm     96% 0in /  0.0mm 0 W/m2
02:58 45.3 °F /  7.4 °C 44.2 °F /  6.8 °C 29.5in /  997.6hPa Calm     96% 0in /  0.0mm 0 W/m2
03:03 45.5 °F /  7.5 °C 44.4 °F /  6.9 °C 29.5in /  997.6hPa Calm     96% 0in /  0.0mm 0 W/m2
03:08 45.7 °F /  7.6 °C 44.6 °F /  7 °C 29.5in /  997.6hPa Calm     96% 0in /  0.0mm 0 W/m2
03:13 45.7 °F /  7.6 °C 44.6 °F /  7 °C 29.5in /  997.6hPa Calm     96% 0in /  0.0mm 0 W/m2
03:18 45.9 °F /  7.7 °C 44.8 °F /  7.1 °C 29.5in /  997.3hPa Calm     96% 0in /  0.0mm 0 W/m2
03:23 45.9 °F /  7.7 °C 45.1 °F /  7.3 °C 29.5in /  997.3hPa South 0.9mph /  1.4km/h 2mph /  3.2km/h 97% 0in /  0.0mm 0 W/m2
03:28 46 °F /  7.8 °C 45.3 °F /  7.4 °C 29.5in /  997.3hPa SE 2mph /  3.2km/h 3mph /  4.8km/h 97% 0in /  0.0mm 0 W/m2
03:33 46.2 °F /  7.9 °C 45.5 °F /  7.5 °C 29.4in /  997.0hPa Calm   2mph /  3.2km/h 97% 0in /  0.0mm 0 W/m2
03:38 46.2 °F /  7.9 °C 45.5 °F /  7.5 °C 29.4in /  997.0hPa Calm   3mph /  4.8km/h 97% 0in /  0.0mm 0 W/m2
03:43 46.2 °F /  7.9 °C 45.5 °F /  7.5 °C 29.4in /  996.6hPa Calm   2mph /  3.2km/h 97% 0in /  0.0mm 0 W/m2
03:48 46.2 °F /  7.9 °C 45.5 °F /  7.5 °C 29.4in /  996.6hPa Calm     97% 0in /  0.0mm 0 W/m2
03:53 46.2 °F /  7.9 °C 45.5 °F /  7.5 °C 29.4in /  996.6hPa Calm   2mph /  3.2km/h 97% 0in /  0.0mm 0 W/m2
03:58 46.2 °F /  7.9 °C 45.5 °F /  7.5 °C 29.4in /  996.3hPa SE 0.9mph /  1.4km/h 1mph /  1.6km/h 97% 0in /  0.0mm 0 W/m2
04:03 46.2 °F /  7.9 °C 45.5 °F /  7.5 °C 29.4in /  996.3hPa Calm     97% 0in /  0.0mm 0 W/m2
04:08 46.2 °F /  7.9 °C 45.5 °F /  7.5 °C 29.4in /  996.3hPa Calm     97% 0in /  0.0mm 0 W/m2
04:13 46.2 °F /  7.9 °C 45.5 °F /  7.5 °C 29.4in /  995.9hPa Calm   1mph /  1.6km/h 97% 0in /  0.0mm 0 W/m2
04:18 46.4 °F /  8 °C 45.7 °F /  7.6 °C 29.4in /  995.9hPa Calm     97% 0in /  0.0mm 0 W/m2
04:23 46.4 °F /  8 °C 45.7 °F /  7.6 °C 29.4in /  996.3hPa Calm   1mph /  1.6km/h 97% 0in /  0.0mm 0 W/m2
04:28 46.4 °F /  8 °C 45.7 °F /  7.6 °C 29.4in /  995.9hPa Calm     97% 0in /  0.0mm 0 W/m2
04:33 46.4 °F /  8 °C 45.7 °F /  7.6 °C 29.4in /  995.9hPa Calm     97% 0in /  0.0mm 0 W/m2
04:38 46.6 °F /  8.1 °C 45.9 °F /  7.7 °C 29.4in /  995.9hPa Calm     97% 0in /  0.0mm 0 W/m2
04:43 46.6 °F /  8.1 °C 45.9 °F /  7.7 °C 29.4in /  995.6hPa Calm     97% 0in /  0.0mm 0 W/m2
04:48 46.6 °F /  8.1 °C 45.9 °F /  7.7 °C 29.4in /  995.6hPa Calm     97% 0in /  0.0mm 0 W/m2
04:53 46.4 °F /  8 °C 45.7 °F /  7.6 °C 29.4in /  995.6hPa Calm     97% 0in /  0.0mm 0 W/m2
04:58 46.2 °F /  7.9 °C 45.5 °F /  7.5 °C 29.4in /  995.6hPa Calm     97% 0in /  0.0mm 0 W/m2
05:03 46.2 °F /  7.9 °C 45.5 °F /  7.5 °C 29.4in /  995.3hPa Calm     97% 0in /  0.0mm 0 W/m2
05:08 46 °F /  7.8 °C 45.3 °F /  7.4 °C 29.4in /  995.3hPa Calm     97% 0in /  0.0mm 0 W/m2
05:14 46.2 °F /  7.9 °C 45.5 °F /  7.5 °C 29.4in /  995.3hPa Calm     97% 0in /  0.0mm 0 W/m2
05:19 46.2 °F /  7.9 °C 45.5 °F /  7.5 °C 29.4in /  994.9hPa Calm     97% 0in /  0.0mm 0 W/m2
05:24 46.4 °F /  8 °C 45.7 °F /  7.6 °C 29.4in /  995.3hPa Calm     97% 0in /  0.0mm 0 W/m2
05:29 46.6 °F /  8.1 °C 45.9 °F /  7.7 °C 29.4in /  994.9hPa Calm     97% 0in /  0.0mm 0 W/m2
05:34 46.6 °F /  8.1 °C 45.9 °F /  7.7 °C 29.4in /  994.6hPa Calm     97% 0in /  0.0mm 0 W/m2
05:39 46.8 °F /  8.2 °C 46 °F /  7.8 °C 29.4in /  994.2hPa Calm   2mph /  3.2km/h 97% 0in /  0.0mm 0 W/m2
05:44 46.9 °F /  8.3 °C 46.2 °F /  7.9 °C 29.4in /  994.2hPa Calm   1mph /  1.6km/h 97% 0in /  0.0mm 0 W/m2
05:49 46.9 °F /  8.3 °C 46.2 °F /  7.9 °C 29.4in /  994.2hPa Calm     97% 0in /  0.0mm 0 W/m2
05:54 46.9 °F /  8.3 °C 46.2 °F /  7.9 °C 29.4in /  994.2hPa Calm     97% 0in /  0.0mm 0 W/m2
06:00 47.1 °F /  8.4 °C 46.4 °F /  8 °C 29.4in /  994.2hPa Calm     97% 0in /  0.0mm 0 W/m2
06:05 47.1 °F /  8.4 °C 46.4 °F /  8 °C 29.4in /  993.9hPa Calm     97% 0in /  0.0mm 0 W/m2
06:10 46.9 °F /  8.3 °C 46.2 °F /  7.9 °C 29.4in /  993.9hPa Calm     97% 0in /  0.0mm 0 W/m2
06:15 46.9 °F /  8.3 °C 46.2 °F /  7.9 °C 29.4in /  993.9hPa Calm     97% 0in /  0.0mm 0 W/m2
06:20 46.9 °F /  8.3 °C 46.2 °F /  7.9 °C 29.4in /  993.9hPa Calm     97% 0in /  0.0mm 0 W/m2
06:25 46.9 °F /  8.3 °C 46.2 °F /  7.9 °C 29.4in /  993.9hPa Calm     97% 0in /  0.0mm 0 W/m2
06:31 46.9 °F /  8.3 °C 46.2 °F /  7.9 °C 29.3in /  993.6hPa Calm   1mph /  1.6km/h 97% 0in /  0.0mm 0 W/m2
06:36 47.1 °F /  8.4 °C 46.4 °F /  8 °C 29.3in /  993.6hPa Calm   1mph /  1.6km/h 97% 0in /  0.0mm 0 W/m2
06:41 47.1 °F /  8.4 °C 46.4 °F /  8 °C 29.3in /  993.6hPa Calm   1mph /  1.6km/h 97% 0in /  0.0mm 0 W/m2
06:46 47.3 °F /  8.5 °C 46.6 °F /  8.1 °C 29.3in /  993.2hPa Calm     97% 0in /  0.0mm 0 W/m2
06:51 47.5 °F /  8.6 °C 46.8 °F /  8.2 °C 29.3in /  993.2hPa SE 0.9mph /  1.4km/h 1mph /  1.6km/h 97% 0in /  0.0mm 0 W/m2
06:56 47.5 °F /  8.6 °C 46.8 °F /  8.2 °C 29.3in /  993.2hPa SE 0.9mph /  1.4km/h 2mph /  3.2km/h 97% 0in /  0.0mm 0 W/m2
07:01 47.7 °F /  8.7 °C 46.9 °F /  8.3 °C 29.3in /  993.2hPa Calm   1mph /  1.6km/h 97% 0in /  0.0mm 0 W/m2
07:06 47.7 °F /  8.7 °C 46.9 °F /  8.3 °C 29.3in /  993.2hPa Calm   2mph /  3.2km/h 97% 0in /  0.0mm 0 W/m2
07:11 47.8 °F /  8.8 °C 46.9 °F /  8.3 °C 29.3in /  993.2hPa Calm     97% 0in /  0.0mm 0 W/m2
07:16 47.8 °F /  8.8 °C 46.9 °F /  8.3 °C 29.3in /  992.9hPa Calm   2mph /  3.2km/h 97% 0in /  0.0mm 0 W/m2
07:21 47.8 °F /  8.8 °C 46.9 °F /  8.3 °C 29.3in /  992.9hPa Calm     97% 0in /  0.0mm 0 W/m2
07:26 47.8 °F /  8.8 °C 46.9 °F /  8.3 °C 29.3in /  992.9hPa Calm     97% 0in /  0.0mm 0 W/m2
07:31 47.8 °F /  8.8 °C 46.9 °F /  8.3 °C 29.3in /  992.5hPa Calm     97% 0in /  0.0mm 0 W/m2
07:36 47.8 °F /  8.8 °C 46.9 °F /  8.3 °C 29.3in /  992.5hPa Calm   1mph /  1.6km/h 97% 0in /  0.0mm 0 W/m2
07:41 48 °F /  8.9 °C 47.1 °F /  8.4 °C 29.3in /  992.5hPa Calm     97% 0in /  0.0mm 0 W/m2
07:46 48 °F /  8.9 °C 47.1 °F /  8.4 °C 29.3in /  992.5hPa Calm     97% 0in /  0.0mm 0 W/m2
07:51 48 °F /  8.9 °C 47.1 °F /  8.4 °C 29.3in /  992.5hPa Calm     97% 0in /  0.0mm 0 W/m2
07:56 48.2 °F /  9 °C 47.3 °F /  8.5 °C 29.3in /  992.5hPa Calm     97% 0in /  0.0mm 0 W/m2
08:01 48.2 °F /  9 °C 47.3 °F /  8.5 °C 29.3in /  992.5hPa Calm     97% 0in /  0.0mm 0 W/m2
08:06 48.4 °F /  9.1 °C 47.5 °F /  8.6 °C 29.3in /  992.5hPa Calm     97% 0in /  0.0mm 0 W/m2
08:11 48.4 °F /  9.1 °C 47.5 °F /  8.6 °C 29.3in /  992.5hPa Calm     97% 0in /  0.0mm 0 W/m2
08:16 48.6 °F /  9.2 °C 47.7 °F /  8.7 °C 29.3in /  992.5hPa Calm   2mph /  3.2km/h 97% 0in /  0.0mm 0 W/m2
08:21 48.7 °F /  9.3 °C 47.8 °F /  8.8 °C 29.3in /  992.2hPa Calm   1mph /  1.6km/h 97% 0.01in /  0.2mm 5 W/m2
08:26 48.7 °F /  9.3 °C 47.8 °F /  8.8 °C 29.3in /  992.2hPa Calm     97% 0.01in /  0.2mm 7 W/m2
08:31 48.9 °F /  9.4 °C 48 °F /  8.9 °C 29.3in /  992.2hPa Calm   1mph /  1.6km/h 97% 0.01in /  0.2mm 7 W/m2
08:36 48.9 °F /  9.4 °C 48 °F /  8.9 °C 29.3in /  992.2hPa Calm   1mph /  1.6km/h 97% 0.01in /  0.2mm 7 W/m2
08:41 49.1 °F /  9.5 °C 48.2 °F /  9 °C 29.3in /  992.2hPa Calm     97% 0.01in /  0.2mm 5 W/m2
08:46 49.3 °F /  9.6 °C 48.7 °F /  9.3 °C 29.3in /  992.2hPa NE 4mph /  6.4km/h 4mph /  6.4km/h 98% 0.01in /  0.2mm 5 W/m2
08:51 49.5 °F /  9.7 °C 48.6 °F /  9.2 °C 29.3in /  992.5hPa Calm   1mph /  1.6km/h 97% 0.01in /  0.2mm 0 W/m2
08:56 49.6 °F /  9.8 °C 48.7 °F /  9.3 °C 29.3in /  992.2hPa NE 4mph /  6.4km/h 4mph /  6.4km/h 97% 0.01in /  0.2mm 0 W/m2
09:01 49.8 °F /  9.9 °C 49.3 °F /  9.6 °C 29.3in /  992.2hPa Calm   1mph /  1.6km/h 98% 0.02in /  0.5mm 9 W/m2
09:06 49.8 °F /  9.9 °C 49.3 °F /  9.6 °C 29.3in /  992.2hPa ENE 0.9mph /  1.4km/h 1mph /  1.6km/h 98% 0.02in /  0.5mm 12 W/m2
09:11 50 °F /  10 °C 49.5 °F /  9.7 °C 29.3in /  992.2hPa Calm   1mph /  1.6km/h 98% 0.03in /  0.8mm 12 W/m2
09:16 50.2 °F /  10.1 °C 49.3 °F /  9.6 °C 29.3in /  992.2hPa Calm     97% 0.03in /  0.8mm 14 W/m2
09:21 50.2 °F /  10.1 °C 49.3 °F /  9.6 °C 29.3in /  992.2hPa Calm     97% 0.02in /  0.5mm 25 W/m2
09:26 50.4 °F /  10.2 °C 49.5 °F /  9.7 °C 29.3in /  992.5hPa East 2mph /  3.2km/h 2mph /  3.2km/h 97% 0.02in /  0.5mm 19 W/m2
09:31 50.5 °F /  10.3 °C 50 °F /  10 °C 29.3in /  992.5hPa East 0.9mph /  1.4km/h 2mph /  3.2km/h 98% 0.03in /  0.8mm 21 W/m2
09:37 50.5 °F /  10.3 °C 49.6 °F /  9.8 °C 29.3in /  992.5hPa SE 0.9mph /  1.4km/h 2mph /  3.2km/h 97% 0.03in /  0.8mm 28 W/m2
09:42 50.7 °F /  10.4 °C 49.8 °F /  9.9 °C 29.3in /  992.5hPa East 0.9mph /  1.4km/h 3mph /  4.8km/h 97% 0.04in /  1.0mm 26 W/m2
09:47 50.7 °F /  10.4 °C 49.8 °F /  9.9 °C 29.3in /  992.2hPa East 0.9mph /  1.4km/h 1mph /  1.6km/h 97% 0.04in /  1.0mm 40 W/m2
09:52 50.9 °F /  10.5 °C 50.4 °F /  10.2 °C 29.3in /  992.2hPa NNE 0.9mph /  1.4km/h 1mph /  1.6km/h 98% 0.05in /  1.3mm 32 W/m2
09:57 51.1 °F /  10.6 °C 50.5 °F /  10.3 °C 29.3in /  992.2hPa NE 2mph /  3.2km/h 2mph /  3.2km/h 98% 0.05in /  1.3mm 35 W/m2
10:02 51.1 °F /  10.6 °C 50.5 °F /  10.3 °C 29.3in /  992.2hPa East 0.9mph /  1.4km/h 2mph /  3.2km/h 98% 0.04in /  1.0mm 51 W/m2
10:07 51.3 °F /  10.7 °C 50.4 °F /  10.2 °C 29.3in /  991.9hPa Calm   1mph /  1.6km/h 97% 0.03in /  0.8mm 63 W/m2
10:12 51.3 °F /  10.7 °C 50.4 °F /  10.2 °C 29.3in /  991.9hPa Calm   2mph /  3.2km/h 97% 0.03in /  0.8mm 62 W/m2
10:17 51.4 °F /  10.8 °C 50.5 °F /  10.3 °C 29.3in /  991.9hPa Calm   2mph /  3.2km/h 97% 0.03in /  0.8mm 65 W/m2
10:22 51.6 °F /  10.9 °C 51.1 °F /  10.6 °C 29.3in /  991.9hPa Calm   1mph /  1.6km/h 98% 0.03in /  0.8mm 58 W/m2
10:27 51.6 °F /  10.9 °C 51.1 °F /  10.6 °C 29.3in /  991.5hPa East 0.9mph /  1.4km/h 2mph /  3.2km/h 98% 0.04in /  1.0mm 53 W/m2
10:32 51.8 °F /  11 °C 51.3 °F /  10.7 °C 29.3in /  991.9hPa East 0.9mph /  1.4km/h 2mph /  3.2km/h 98% 0.03in /  0.8mm 54 W/m2
10:37 52 °F /  11.1 °C 51.1 °F /  10.6 °C 29.3in /  991.5hPa Calm   1mph /  1.6km/h 97% 0.04in /  1.0mm 47 W/m2
10:42 52 °F /  11.1 °C 51.1 °F /  10.6 °C 29.3in /  991.5hPa East 2mph /  3.2km/h 2mph /  3.2km/h 97% 0.03in /  0.8mm 69 W/m2
10:47 52 °F /  11.1 °C 51.1 °F /  10.6 °C 29.3in /  991.5hPa Calm   4mph /  6.4km/h 97% 0.04in /  1.0mm 42 W/m2
10:52 52 °F /  11.1 °C 51.1 °F /  10.6 °C 29.3in /  991.5hPa ENE 0.9mph /  1.4km/h 2mph /  3.2km/h 97% 0.03in /  0.8mm 39 W/m2
10:57 52.2 °F /  11.2 °C 51.3 °F /  10.7 °C 29.3in /  991.5hPa East 0.9mph /  1.4km/h 3mph /  4.8km/h 97% 0.04in /  1.0mm 53 W/m2
11:02 52.2 °F /  11.2 °C 51.6 °F /  10.9 °C 29.3in /  991.5hPa Calm   2mph /  3.2km/h 98% 0.04in /  1.0mm 53 W/m2
11:07 52.2 °F /  11.2 °C 51.6 °F /  10.9 °C 29.3in /  991.5hPa Calm   2mph /  3.2km/h 98% 0.05in /  1.3mm 40 W/m2
11:12 52.2 °F /  11.2 °C 51.3 °F /  10.7 °C 29.3in /  991.5hPa Calm   2mph /  3.2km/h 97% 0.05in /  1.3mm 56 W/m2
11:17 52.2 °F /  11.2 °C 51.3 °F /  10.7 °C 29.3in /  991.5hPa Calm     97% 0.05in /  1.3mm 42 W/m2
11:22 52.2 °F /  11.2 °C 51.3 °F /  10.7 °C 29.3in /  991.2hPa Calm   1mph /  1.6km/h 97% 0.06in /  1.5mm 60 W/m2
11:27 52.3 °F /  11.3 °C 51.4 °F /  10.8 °C 29.3in /  991.5hPa Calm     97% 0.06in /  1.5mm 54 W/m2
11:32 52.3 °F /  11.3 °C 51.4 °F /  10.8 °C 29.3in /  991.5hPa East 0.9mph /  1.4km/h 1mph /  1.6km/h 97% 0.07in /  1.8mm 42 W/m2
11:37 52.3 °F /  11.3 °C 51.4 °F /  10.8 °C 29.3in /  991.5hPa Calm     97% 0.06in /  1.5mm 46 W/m2
11:42 52.5 °F /  11.4 °C 51.6 °F /  10.9 °C 29.3in /  991.5hPa East 0.9mph /  1.4km/h 2mph /  3.2km/h 97% 0.07in /  1.8mm 67 W/m2
11:47 52.5 °F /  11.4 °C 51.6 °F /  10.9 °C 29.3in /  991.2hPa Calm     97% 0.08in /  2.0mm 40 W/m2
11:52 52.5 °F /  11.4 °C 51.6 °F /  10.9 °C 29.3in /  991.2hPa Calm   1mph /  1.6km/h 97% 0.09in /  2.3mm 44 W/m2
11:57 52.7 °F /  11.5 °C 51.8 °F /  11 °C 29.3in /  991.2hPa Calm   1mph /  1.6km/h 97% 0.09in /  2.3mm 63 W/m2
12:02 52.7 °F /  11.5 °C 51.8 °F /  11 °C 29.3in /  991.2hPa Calm     97% 0.1in /  2.5mm 70 W/m2
12:07 52.9 °F /  11.6 °C 52 °F /  11.1 °C 29.3in /  991.5hPa Calm   2mph /  3.2km/h 97% 0.1in /  2.5mm 65 W/m2
12:12 52.9 °F /  11.6 °C 52 °F /  11.1 °C 29.3in /  991.5hPa East 0.9mph /  1.4km/h 3mph /  4.8km/h 97% 0.1in /  2.5mm 62 W/m2
12:17 52.9 °F /  11.6 °C 52 °F /  11.1 °C 29.3in /  991.5hPa Calm   2mph /  3.2km/h 97% 0.1in /  2.5mm 53 W/m2
12:22 52.9 °F /  11.6 °C 52 °F /  11.1 °C 29.3in /  991.5hPa East 0.9mph /  1.4km/h 3mph /  4.8km/h 97% 0.11in /  2.8mm 67 W/m2
12:27 52.9 °F /  11.6 °C 52 °F /  11.1 °C 29.3in /  991.5hPa Calm     97% 0.11in /  2.8mm 79 W/m2
12:32 52.9 °F /  11.6 °C 52 °F /  11.1 °C 29.3in /  991.2hPa Calm   2mph /  3.2km/h 97% 0.11in /  2.8mm 70 W/m2
12:37 52.9 °F /  11.6 °C 52 °F /  11.1 °C 29.3in /  991.2hPa Calm   1mph /  1.6km/h 97% 0.13in /  3.3mm 51 W/m2
12:42 52.9 °F /  11.6 °C 52 °F /  11.1 °C 29.3in /  991.2hPa ESE 0.9mph /  1.4km/h 2mph /  3.2km/h 97% 0.13in /  3.3mm 53 W/m2
12:47 53.1 °F /  11.7 °C 52.2 °F /  11.2 °C 29.3in /  991.2hPa Calm   1mph /  1.6km/h 97% 0.13in /  3.3mm 58 W/m2
12:52 53.1 °F /  11.7 °C 52.2 °F /  11.2 °C 29.3in /  991.2hPa Calm   3mph /  4.8km/h 97% 0.12in /  3.0mm 53 W/m2
12:57 53.1 °F /  11.7 °C 52.2 °F /  11.2 °C 29.3in /  990.9hPa ESE 0.9mph /  1.4km/h 2mph /  3.2km/h 97% 0.13in /  3.3mm 44 W/m2
13:02 53.2 °F /  11.8 °C 52.3 °F /  11.3 °C 29.3in /  990.9hPa East 0.9mph /  1.4km/h 3mph /  4.8km/h 97% 0.12in /  3.0mm 72 W/m2
13:07 53.2 °F /  11.8 °C 52.3 °F /  11.3 °C 29.3in /  990.9hPa Calm   1mph /  1.6km/h 97% 0.12in /  3.0mm 104 W/m2
13:12 53.4 °F /  11.9 °C 52.5 °F /  11.4 °C 29.3in /  990.5hPa Calm   2mph /  3.2km/h 97% 0.11in /  2.8mm 125 W/m2
13:17 53.4 °F /  11.9 °C 52.5 °F /  11.4 °C 29.2in /  990.2hPa Calm     97% 0.1in /  2.5mm 109 W/m2
13:22 53.6 °F /  12 °C 52.7 °F /  11.5 °C 29.2in /  990.2hPa ENE 0.9mph /  1.4km/h 2mph /  3.2km/h 97% 0.09in /  2.3mm 97 W/m2
13:27 53.8 °F /  12.1 °C 52.9 °F /  11.6 °C 29.2in /  990.2hPa Calm   1mph /  1.6km/h 97% 0.08in /  2.0mm 104 W/m2
13:32 53.8 °F /  12.1 °C 52.9 °F /  11.6 °C 29.2in /  990.2hPa Calm     97% 0.07in /  1.8mm 109 W/m2
13:37 54 °F /  12.2 °C 53.1 °F /  11.7 °C 29.2in /  989.8hPa Calm     97% 0.06in /  1.5mm 142 W/m2
13:42 54 °F /  12.2 °C 53.1 °F /  11.7 °C 29.2in /  989.8hPa Calm     97% 0.05in /  1.3mm 165 W/m2
13:47 54.1 °F /  12.3 °C 53.2 °F /  11.8 °C 29.2in /  989.5hPa Calm   1mph /  1.6km/h 97% 0.03in /  0.8mm 158 W/m2
13:52 54.1 °F /  12.3 °C 53.2 °F /  11.8 °C 29.2in /  989.5hPa Calm   1mph /  1.6km/h 97% 0.02in /  0.5mm 174 W/m2
13:57 54.1 °F /  12.3 °C 53.2 °F /  11.8 °C 29.2in /  989.2hPa NNW 0.9mph /  1.4km/h 1mph /  1.6km/h 97% 0.01in /  0.2mm 162 W/m2
14:02 54.3 °F /  12.4 °C 53.4 °F /  11.9 °C 29.2in /  989.2hPa Calm   1mph /  1.6km/h 97% 0.01in /  0.2mm 149 W/m2
14:07 54.7 °F /  12.6 °C 53.8 °F /  12.1 °C 29.2in /  989.2hPa Calm   2mph /  3.2km/h 97% 0.01in /  0.2mm 114 W/m2
14:12 54.7 °F /  12.6 °C 53.8 °F /  12.1 °C 29.2in /  988.8hPa NNW 0.9mph /  1.4km/h 2mph /  3.2km/h 97% 0.01in /  0.2mm 114 W/m2
14:17 54.9 °F /  12.7 °C 53.8 °F /  12.1 °C 29.2in /  988.8hPa Calm   1mph /  1.6km/h 96% 0.01in /  0.2mm 98 W/m2
14:22 54.9 °F /  12.7 °C 53.8 °F /  12.1 °C 29.2in /  988.8hPa Calm   3mph /  4.8km/h 96% 0.01in /  0.2mm 88 W/m2
14:27 55 °F /  12.8 °C 54 °F /  12.2 °C 29.2in /  988.5hPa Calm   1mph /  1.6km/h 96% 0.01in /  0.2mm 81 W/m2
14:32 55 °F /  12.8 °C 54 °F /  12.2 °C 29.2in /  988.1hPa Calm   2mph /  3.2km/h 96% 0.01in /  0.2mm 76 W/m2
14:37 55 °F /  12.8 °C 53.6 °F /  12 °C 29.2in /  988.1hPa Calm   1mph /  1.6km/h 95% 0.01in /  0.2mm 69 W/m2
14:43 55 °F /  12.8 °C 53.6 °F /  12 °C 29.2in /  987.8hPa Calm     95% 0.01in /  0.2mm 58 W/m2
14:48 55.2 °F /  12.9 °C 53.8 °F /  12.1 °C 29.2in /  987.5hPa Calm   1mph /  1.6km/h 95% 0.01in /  0.2mm 60 W/m2
14:53 55.2 °F /  12.9 °C 53.8 °F /  12.1 °C 29.2in /  987.5hPa Calm   1mph /  1.6km/h 95% 0.01in /  0.2mm 53 W/m2
14:58 55.2 °F /  12.9 °C 53.8 °F /  12.1 °C 29.2in /  987.5hPa SE 0.9mph /  1.4km/h 2mph /  3.2km/h 95% 0.01in /  0.2mm 53 W/m2
15:03 55.2 °F /  12.9 °C 53.8 °F /  12.1 °C 29.2in /  987.5hPa NW 0.9mph /  1.4km/h 2mph /  3.2km/h 95% 0in /  0.0mm 54 W/m2
15:08 55.2 °F /  12.9 °C 53.8 °F /  12.1 °C 29.2in /  987.5hPa SW 0.9mph /  1.4km/h 1mph /  1.6km/h 95% 0in /  0.0mm 58 W/m2
15:13 55.4 °F /  13 °C 54 °F /  12.2 °C 29.2in /  987.5hPa Calm   1mph /  1.6km/h 95% 0in /  0.0mm 62 W/m2
15:18 55.6 °F /  13.1 °C 54.1 °F /  12.3 °C 29.2in /  987.1hPa Calm   2mph /  3.2km/h 95% 0in /  0.0mm 62 W/m2
15:23 55.6 °F /  13.1 °C 54.1 °F /  12.3 °C 29.2in /  987.1hPa WNW 0.9mph /  1.4km/h 2mph /  3.2km/h 95% 0in /  0.0mm 58 W/m2
15:28 55.8 °F /  13.2 °C 54.3 °F /  12.4 °C 29.2in /  987.1hPa WSW 2mph /  3.2km/h 2mph /  3.2km/h 95% 0in /  0.0mm 54 W/m2
15:33 55.8 °F /  13.2 °C 54.3 °F /  12.4 °C 29.2in /  987.1hPa Calm     95% 0in /  0.0mm 54 W/m2
15:38 55.8 °F /  13.2 °C 54.3 °F /  12.4 °C 29.2in /  987.1hPa West 0.9mph /  1.4km/h 2mph /  3.2km/h 95% 0in /  0.0mm 58 W/m2
15:43 55.9 °F /  13.3 °C 54.9 °F /  12.7 °C 29.2in /  987.5hPa Calm     96% 0.01in /  0.2mm 69 W/m2
15:48 55.9 °F /  13.3 °C 54.9 °F /  12.7 °C 29.2in /  987.5hPa Calm   2mph /  3.2km/h 96% 0.01in /  0.2mm 54 W/m2
15:53 55.9 °F /  13.3 °C 54.9 °F /  12.7 °C 29.2in /  987.5hPa West 0.9mph /  1.4km/h 1mph /  1.6km/h 96% 0.01in /  0.2mm 49 W/m2
15:58 56.1 °F /  13.4 °C 55 °F /  12.8 °C 29.2in /  987.5hPa Calm     96% 0.01in /  0.2mm 42 W/m2
16:03 56.1 °F /  13.4 °C 55 °F /  12.8 °C 29.2in /  987.5hPa Calm     96% 0.02in /  0.5mm 42 W/m2
16:08 56.1 °F /  13.4 °C 55 °F /  12.8 °C 29.2in /  987.5hPa Calm     96% 0.02in /  0.5mm 53 W/m2
16:13 56.1 °F /  13.4 °C 55 °F /  12.8 °C 29.2in /  987.5hPa West 0.9mph /  1.4km/h 2mph /  3.2km/h 96% 0.02in /  0.5mm 53 W/m2
16:18 56.1 °F /  13.4 °C 55 °F /  12.8 °C 29.2in /  987.5hPa Calm   2mph /  3.2km/h 96% 0.02in /  0.5mm 44 W/m2
16:23 56.1 °F /  13.4 °C 55 °F /  12.8 °C 29.2in /  987.5hPa Calm     96% 0.02in /  0.5mm 51 W/m2
16:28 56.3 °F /  13.5 °C 55.2 °F /  12.9 °C 29.2in /  987.5hPa Calm     96% 0.02in /  0.5mm 72 W/m2
16:33 56.5 °F /  13.6 °C 55.4 °F /  13 °C 29.2in /  987.1hPa West 0.9mph /  1.4km/h 2mph /  3.2km/h 96% 0.02in /  0.5mm 56 W/m2
16:45 56.5 °F /  13.6 °C 55.4 °F /  13 °C 29.2in /  987.1hPa Calm     96% 0.02in /  0.5mm 51 W/m2
16:50 56.5 °F /  13.6 °C 55.4 °F /  13 °C 29.2in /  987.1hPa West 0.9mph /  1.4km/h 2mph /  3.2km/h 96% 0.02in /  0.5mm 56 W/m2
16:55 56.7 °F /  13.7 °C 55.6 °F /  13.1 °C 29.2in /  987.5hPa Calm   1mph /  1.6km/h 96% 0.02in /  0.5mm 53 W/m2
17:00 56.7 °F /  13.7 °C 55.6 °F /  13.1 °C 29.2in /  987.5hPa Calm   2mph /  3.2km/h 96% 0.01in /  0.2mm 51 W/m2
17:05 56.8 °F /  13.8 °C 55.8 °F /  13.2 °C 29.2in /  987.5hPa Calm     96% 0.01in /  0.2mm 44 W/m2
17:10 56.8 °F /  13.8 °C 55.8 °F /  13.2 °C 29.2in /  987.5hPa Calm   2mph /  3.2km/h 96% 0.01in /  0.2mm 39 W/m2
17:15 56.8 °F /  13.8 °C 55.8 °F /  13.2 °C 29.2in /  987.5hPa Calm     96% 0.01in /  0.2mm 37 W/m2
17:20 56.8 °F /  13.8 °C 55.8 °F /  13.2 °C 29.2in /  987.5hPa Calm     96% 0.01in /  0.2mm 37 W/m2
17:25 56.8 °F /  13.8 °C 55.8 °F /  13.2 °C 29.2in /  987.5hPa Calm     96% 0.01in /  0.2mm 39 W/m2
17:30 56.8 °F /  13.8 °C 55.8 °F /  13.2 °C 29.2in /  987.5hPa Calm     96% 0in /  0.0mm 33 W/m2
17:35 56.8 °F /  13.8 °C 55.8 °F /  13.2 °C 29.2in /  987.5hPa West 0.9mph /  1.4km/h 2mph /  3.2km/h 96% 0in /  0.0mm 28 W/m2
17:40 56.8 °F /  13.8 °C 55.8 °F /  13.2 °C 29.2in /  987.1hPa Calm     96% 0in /  0.0mm 28 W/m2
17:45 56.8 °F /  13.8 °C 55.8 °F /  13.2 °C 29.2in /  987.1hPa Calm   2mph /  3.2km/h 96% 0in /  0.0mm 26 W/m2
17:50 56.8 °F /  13.8 °C 55.8 °F /  13.2 °C 29.2in /  987.1hPa Calm   1mph /  1.6km/h 96% 0in /  0.0mm 23 W/m2
17:55 56.8 °F /  13.8 °C 55.8 °F /  13.2 °C 29.2in /  987.1hPa South 0.9mph /  1.4km/h 2mph /  3.2km/h 96% 0in /  0.0mm 19 W/m2
18:00 56.7 °F /  13.7 °C 55.6 °F /  13.1 °C 29.2in /  987.1hPa South 0.9mph /  1.4km/h 2mph /  3.2km/h 96% 0in /  0.0mm 18 W/m2
18:06 56.7 °F /  13.7 °C 55.6 °F /  13.1 °C 29.2in /  987.1hPa Calm   1mph /  1.6km/h 96% 0.01in /  0.2mm 16 W/m2
18:11 56.7 °F /  13.7 °C 55.6 °F /  13.1 °C 29.2in /  987.1hPa Calm   2mph /  3.2km/h 96% 0.01in /  0.2mm 14 W/m2
18:16 56.7 °F /  13.7 °C 55.6 °F /  13.1 °C 29.2in /  987.1hPa Calm     96% 0.01in /  0.2mm 12 W/m2
18:21 56.5 °F /  13.6 °C 55.4 °F /  13 °C 29.2in /  987.1hPa Calm     96% 0.01in /  0.2mm 11 W/m2
18:26 56.5 °F /  13.6 °C 55.4 °F /  13 °C 29.1in /  986.8hPa Calm     96% 0.01in /  0.2mm 9 W/m2
18:31 56.5 °F /  13.6 °C 55.4 °F /  13 °C 29.1in /  986.8hPa Calm     96% 0.02in /  0.5mm 7 W/m2
18:36 56.5 °F /  13.6 °C 55.6 °F /  13.1 °C 29.1in /  986.8hPa Calm     97% 0.02in /  0.5mm 7 W/m2
18:41 56.5 °F /  13.6 °C 55.6 °F /  13.1 °C 29.1in /  986.8hPa Calm   1mph /  1.6km/h 97% 0.02in /  0.5mm 5 W/m2
18:46 56.3 °F /  13.5 °C 55.4 °F /  13 °C 29.1in /  986.8hPa Calm     97% 0.02in /  0.5mm 0 W/m2
18:51 56.3 °F /  13.5 °C 55.4 °F /  13 °C 29.1in /  986.8hPa Calm     97% 0.02in /  0.5mm 0 W/m2
18:56 56.3 °F /  13.5 °C 55.4 °F /  13 °C 29.1in /  986.8hPa SW 0.9mph /  1.4km/h 1mph /  1.6km/h 97% 0.02in /  0.5mm 0 W/m2
19:01 56.3 °F /  13.5 °C 55.4 °F /  13 °C 29.2in /  987.1hPa Calm   1mph /  1.6km/h 97% 0.02in /  0.5mm 0 W/m2
19:06 56.1 °F /  13.4 °C 55.2 °F /  12.9 °C 29.2in /  987.1hPa Calm   1mph /  1.6km/h 97% 0.02in /  0.5mm 0 W/m2
19:11 56.1 °F /  13.4 °C 55.2 °F /  12.9 °C 29.2in /  987.1hPa Calm     97% 0.02in /  0.5mm 0 W/m2
19:16 56.1 °F /  13.4 °C 55.2 °F /  12.9 °C 29.2in /  987.1hPa Calm   1mph /  1.6km/h 97% 0.02in /  0.5mm 0 W/m2
19:21 56.1 °F /  13.4 °C 55.2 °F /  12.9 °C 29.2in /  987.1hPa Calm     97% 0.02in /  0.5mm 0 W/m2
19:26 56.1 °F /  13.4 °C 55.2 °F /  12.9 °C 29.2in /  987.1hPa Calm     97% 0.02in /  0.5mm 0 W/m2
19:31 56.1 °F /  13.4 °C 55.2 °F /  12.9 °C 29.1in /  986.8hPa Calm     97% 0.02in /  0.5mm 0 W/m2
19:36 55.9 °F /  13.3 °C 55 °F /  12.8 °C 29.1in /  986.8hPa Calm   1mph /  1.6km/h 97% 0.02in /  0.5mm 0 W/m2
19:41 55.9 °F /  13.3 °C 55 °F /  12.8 °C 29.1in /  986.8hPa Calm     97% 0.02in /  0.5mm 0 W/m2
19:46 55.9 °F /  13.3 °C 55 °F /  12.8 °C 29.1in /  986.8hPa Calm     97% 0.02in /  0.5mm 0 W/m2
19:51 55.9 °F /  13.3 °C 55 °F /  12.8 °C 29.1in /  986.8hPa Calm   1mph /  1.6km/h 97% 0.02in /  0.5mm 0 W/m2
19:56 55.9 °F /  13.3 °C 55 °F /  12.8 °C 29.1in /  986.8hPa SW 0.9mph /  1.4km/h 2mph /  3.2km/h 97% 0.01in /  0.2mm 0 W/m2
20:01 55.9 °F /  13.3 °C 55 °F /  12.8 °C 29.1in /  986.5hPa Calm   2mph /  3.2km/h 97% 0.01in /  0.2mm 0 W/m2
20:06 55.9 °F /  13.3 °C 55 °F /  12.8 °C 29.1in /  986.5hPa SW 0.9mph /  1.4km/h 1mph /  1.6km/h 97% 0.01in /  0.2mm 0 W/m2
20:11 55.8 °F /  13.2 °C 54.9 °F /  12.7 °C 29.1in /  986.5hPa SW 2mph /  3.2km/h 2mph /  3.2km/h 97% 0.01in /  0.2mm 0 W/m2
20:16 55.8 °F /  13.2 °C 54.9 °F /  12.7 °C 29.1in /  986.1hPa Calm     97% 0.01in /  0.2mm 0 W/m2
20:21 55.8 °F /  13.2 °C 54.9 °F /  12.7 °C 29.1in /  986.1hPa Calm   2mph /  3.2km/h 97% 0.01in /  0.2mm 0 W/m2
20:26 55.8 °F /  13.2 °C 54.9 °F /  12.7 °C 29.1in /  986.1hPa NW 0.9mph /  1.4km/h 1mph /  1.6km/h 97% 0in /  0.0mm 0 W/m2
20:31 55.8 °F /  13.2 °C 54.9 °F /  12.7 °C 29.1in /  985.8hPa Calm   1mph /  1.6km/h 97% 0in /  0.0mm 0 W/m2
20:36 55.6 °F /  13.1 °C 54.7 °F /  12.6 °C 29.1in /  985.8hPa West 0.9mph /  1.4km/h 1mph /  1.6km/h 97% 0in /  0.0mm 0 W/m2
20:41 55.6 °F /  13.1 °C 54.7 °F /  12.6 °C 29.1in /  985.8hPa Calm   2mph /  3.2km/h 97% 0in /  0.0mm 0 W/m2
20:46 55.6 °F /  13.1 °C 54.7 °F /  12.6 °C 29.1in /  985.4hPa Calm   2mph /  3.2km/h 97% 0in /  0.0mm 0 W/m2
20:51 55.4 °F /  13 °C 54.5 °F /  12.5 °C 29.1in /  985.8hPa WSW 0.9mph /  1.4km/h 3mph /  4.8km/h 97% 0in /  0.0mm 0 W/m2
20:56 55.6 °F /  13.1 °C 54.7 °F /  12.6 °C 29.1in /  985.8hPa WSW 0.9mph /  1.4km/h 2mph /  3.2km/h 97% 0in /  0.0mm 0 W/m2
21:01 55.4 °F /  13 °C 54.5 °F /  12.5 °C 29.1in /  985.8hPa Calm   3mph /  4.8km/h 97% 0in /  0.0mm 0 W/m2
21:06 55.4 °F /  13 °C 54.5 °F /  12.5 °C 29.1in /  986.1hPa Calm     97% 0in /  0.0mm 0 W/m2
21:11 55.4 °F /  13 °C 54.5 °F /  12.5 °C 29.1in /  986.1hPa WSW 0.9mph /  1.4km/h 2mph /  3.2km/h 97% 0in /  0.0mm 0 W/m2
21:16 55.4 °F /  13 °C 54.5 °F /  12.5 °C 29.1in /  986.1hPa Calm   2mph /  3.2km/h 97% 0in /  0.0mm 0 W/m2
21:21 55.4 °F /  13 °C 54.5 °F /  12.5 °C 29.1in /  985.8hPa Calm   1mph /  1.6km/h 97% 0in /  0.0mm 0 W/m2
21:26 55.2 °F /  12.9 °C 54.3 °F /  12.4 °C 29.1in /  985.8hPa Calm   3mph /  4.8km/h 97% 0in /  0.0mm 0 W/m2
21:31 55.2 °F /  12.9 °C 54.3 °F /  12.4 °C 29.1in /  985.8hPa WSW 0.9mph /  1.4km/h 2mph /  3.2km/h 97% 0in /  0.0mm 0 W/m2
21:36 55.2 °F /  12.9 °C 54.3 °F /  12.4 °C 29.1in /  986.1hPa Calm   2mph /  3.2km/h 97% 0in /  0.0mm 0 W/m2
21:41 55.2 °F /  12.9 °C 54.3 °F /  12.4 °C 29.1in /  986.1hPa WSW 0.9mph /  1.4km/h 2mph /  3.2km/h 97% 0in /  0.0mm 0 W/m2
21:46 55.4 °F /  13 °C 54.5 °F /  12.5 °C 29.1in /  986.1hPa WSW 0.9mph /  1.4km/h 2mph /  3.2km/h 97% 0in /  0.0mm 0 W/m2
21:51 55.4 °F /  13 °C 54.5 °F /  12.5 °C 29.1in /  986.1hPa Calm     97% 0in /  0.0mm 0 W/m2
21:56 55.4 °F /  13 °C 54.5 °F /  12.5 °C 29.1in /  986.1hPa Calm   1mph /  1.6km/h 97% 0in /  0.0mm 0 W/m2
22:01 55.6 °F /  13.1 °C 54.7 °F /  12.6 °C 29.1in /  986.1hPa Calm     97% 0in /  0.0mm 0 W/m2
22:06 55.6 °F /  13.1 °C 54.7 °F /  12.6 °C 29.1in /  986.1hPa WSW 0.9mph /  1.4km/h 2mph /  3.2km/h 97% 0in /  0.0mm 0 W/m2
22:11 55.6 °F /  13.1 °C 54.7 °F /  12.6 °C 29.1in /  986.5hPa WSW 0.9mph /  1.4km/h 2mph /  3.2km/h 97% 0.01in /  0.2mm 0 W/m2
22:16 55.6 °F /  13.1 °C 54.7 °F /  12.6 °C 29.1in /  986.8hPa WSW 0.9mph /  1.4km/h 2mph /  3.2km/h 97% 0.01in /  0.2mm 0 W/m2
22:21 55.6 °F /  13.1 °C 54.7 °F /  12.6 °C 29.1in /  986.8hPa WSW 0.9mph /  1.4km/h 1mph /  1.6km/h 97% 0.01in /  0.2mm 0 W/m2
22:26 55.6 °F /  13.1 °C 54.7 °F /  12.6 °C 29.1in /  986.5hPa Calm   1mph /  1.6km/h 97% 0.01in /  0.2mm 0 W/m2
22:31 55.6 °F /  13.1 °C 54.7 °F /  12.6 °C 29.1in /  986.5hPa WSW 0.9mph /  1.4km/h 1mph /  1.6km/h 97% 0.01in /  0.2mm 0 W/m2
22:36 55.4 °F /  13 °C 54.5 °F /  12.5 °C 29.1in /  986.8hPa WSW 2mph /  3.2km/h 2mph /  3.2km/h 97% 0.01in /  0.2mm 0 W/m2
22:41 55.6 °F /  13.1 °C 54.7 °F /  12.6 °C 29.2in /  987.1hPa West 2mph /  3.2km/h 8mph /  12.9km/h 97% 0.01in /  0.2mm 0 W/m2
22:46 55.8 °F /  13.2 °C 54.9 °F /  12.7 °C 29.2in /  987.1hPa NNW 2mph /  3.2km/h 5mph /  8km/h 97% 0.01in /  0.2mm 0 W/m2
22:51 55.8 °F /  13.2 °C 54.9 °F /  12.7 °C 29.2in /  987.1hPa West 0.9mph /  1.4km/h 8mph /  12.9km/h 97% 0.01in /  0.2mm 0 W/m2
22:56 55.9 °F /  13.3 °C 55 °F /  12.8 °C 29.2in /  987.1hPa SW 0.9mph /  1.4km/h 3mph /  4.8km/h 97% 0.01in /  0.2mm 0 W/m2
23:01 55.9 °F /  13.3 °C 55 °F /  12.8 °C 29.2in /  987.1hPa NW 0.9mph /  1.4km/h 3mph /  4.8km/h 97% 0.01in /  0.2mm 0 W/m2
23:06 56.1 °F /  13.4 °C 55.2 °F /  12.9 °C 29.2in /  987.1hPa WNW 4mph /  6.4km/h 6mph /  9.7km/h 97% 0.01in /  0.2mm 0 W/m2
23:11 56.1 °F /  13.4 °C 55.2 °F /  12.9 °C 29.1in /  986.8hPa WNW 2.9mph /  4.7km/h 7mph /  11.3km/h 97% 0in /  0.0mm 0 W/m2
23:16 56.1 °F /  13.4 °C 55.2 °F /  12.9 °C 29.1in /  986.8hPa West 2.9mph /  4.7km/h 10mph /  16.1km/h 97% 0in /  0.0mm 0 W/m2
23:21 56.1 °F /  13.4 °C 55.2 °F /  12.9 °C 29.1in /  986.8hPa WSW 4mph /  6.4km/h 8mph /  12.9km/h 97% 0in /  0.0mm 0 W/m2
23:26 56.1 °F /  13.4 °C 55.2 °F /  12.9 °C 29.2in /  987.1hPa NW 2mph /  3.2km/h 10mph /  16.1km/h 97% 0in /  0.0mm 0 W/m2
23:32 56.1 °F /  13.4 °C 55 °F /  12.8 °C 29.2in /  987.1hPa West 6.9mph /  11.1km/h 8mph /  12.9km/h 96% 0in /  0.0mm 0 W/m2
23:37 56.1 °F /  13.4 °C 55 °F /  12.8 °C 29.2in /  987.1hPa SW 0.9mph /  1.4km/h 6mph /  9.7km/h 96% 0in /  0.0mm 0 W/m2
23:42 56.1 °F /  13.4 °C 55 °F /  12.8 °C 29.2in /  987.1hPa WSW 0.9mph /  1.4km/h 8mph /  12.9km/h 96% 0in /  0.0mm 0 W/m2
23:47 56.1 °F /  13.4 °C 55 °F /  12.8 °C 29.2in /  987.5hPa WNW 4mph /  6.4km/h 7mph /  11.3km/h 96% 0in /  0.0mm 0 W/m2
23:52 56.3 °F /  13.5 °C 55.2 °F /  12.9 °C 29.2in /  987.5hPa WNW 4.9mph /  7.9km/h 7mph /  11.3km/h 96% 0in /  0.0mm 0 W/m2
23:57 56.3 °F /  13.5 °C 54.9 °F /  12.7 °C 29.2in /  987.5hPa West 4mph /  6.4km/h 4mph /  6.4km/h 95% 0in /  0.0mm 0 W/m2
Juneau County Weather
Compliments of Weather Underground - 4 mb